Etusivu
METAR-TAF:

METAR-TAF

Lentoasemat :

Yapin kansainvälinen lentoasema

Yap, Mikronesia

Leveyspiiri: 09-29N, Pituuspiiri: 138-05E, korkeus merenpinnasta: 28 m

Tämänhetkinen sää

Tämä raportti tehtiin 1 tunti ja 0 minuuttia sitten, kello 12.50 UTC
Tuuli 3 kn eri suunnista
Lämpötila 28°C
Kosteus 84%
Ilmanpaine 1009 hPa
Näkyvyys: 19.3 km
Muutamia pilviä 1600 ft:n korkeudessa
Hajanaisia pilviä 30000 ft:n korkeudessa

METAR: PTYA 241250Z VRB03KT 12SM FEW016 SCT300 28/25 A2981 RMK SLP095 T02790254

Aika: 23:50 (13:50 UTC)

Sääennuste

Tämä raportti tehtiin 2 tuntia ja 30 minuuttia sitten, kello 11.20 UTC
Ennuste voimassa 24. päivästä klo 12 UTC - 25. päivään klo 12 UTC
Tuuli 7 kn idästä/koillisesta
Näkyvyys: 10 km
Hajanaisia pilviä 1600 ft:n korkeudessa
Hajanaisia pilviä 4000 ft:n korkeudessa

TAF: PTYA 241120Z 2412/2512 06007KT P6SM SCT016 SCT040

Säähavainnot ja -ennusteet yli 4000 lentoasemalta (METAR- ja TAF-raportit).

Käytössä olevat sääasemat on merkitty karttaan keltaisilla ja punaisilla pisteillä.

Aseta hiiri pisteen päälle nähdäksesi sääaseman nimen.

Klikkaa sitten nähdäksesi säähavainnot ja -ennusteet.

Kartan vaihtaminen: klikkaa mustalla rastilla varustettuja vihreitä pisteitä, niin voit zoomata sisään; viivalla varustettua vihreää pistettä, niin voit zoomata ulos tai vihreitä nuolia, niin pääset viereisille kartoille.


METAR-TAF: